Terminal Aerodrome Forecast
Issued by NWS Green Bay, WI

Home | Current Version | Previous Version | Text Only | Print | Product List | Glossary Off
Versions: 1 2 3 4 5 6 7 8 9 10 11 12 13 14 15 16 17 18 19 20 21 22 23 24 25 26 27 28 29 30 31 32 33 34

000
FTUS43 KGRB 221720
TAFGRB
TAF
KGRB 221720Z 2218/2318 09006KT P6SM SKC
     FM222100 14006KT P6SM SKC
     FM230200 18004KT P6SM SKC
     FM231600 18010G17KT P6SM FEW250=

USA.gov is the U.S. government's official web portal to all federal, state and local government web resources and services.